< < Back
Terminal Aerodrome Forecast


Current Version              Previous Versions:   1  2  3  4  5  6  7  8  9  

Terminal Aerodrome Forecast

387
FTUS42 KFFC 021100
TAFPDK
TAF
KPDK 021131Z 0212/0312 00000KT P6SM FEW150
     FM021400 VRB03KT P6SM SCT035 SCT150
     FM021800 27005KT P6SM SCT050 SCT150
      TEMPO 0218/0222 VRB15G30KT 5SM TSRA BKN045CB
     FM030100 00000KT P6SM BKN120=



Latest METAR

258
SAUS70 KWBC 021700 RRJ
MTRPDK
METAR KPDK 021653Z 29004KT 9SM FEW041 SCT070 SCT085 31/21 A3012 RMK AO2
SLP179 T03060206


USA.gov is the U.S. government's official web portal to all federal, state and local government web resources and services.